Dati Storici

Data ora Umidita' aria (%) Temperatura aria (°C) Rad globale (W/m²) Gonioanemometro (°) Tacoanemometro (m/s) Pioggia (mm)
27-10-2012 18:50 94.2 % 15.046 3.348 335.371 0.376 0
27-10-2012 18:40 93.9 % 15.065 3.232 355.344 0.264 0
27-10-2012 18:30 93.6 % 15.099 3.348 2.993 0.379 0
27-10-2012 18:20 93.3 % 15.158 3.45 1.987 0.287 0
27-10-2012 18:10 93.2 % 15.29 4.373 14.951 0.704 0
27-10-2012 18:00 93 % 15.348 6.205 19.578 1.175 0
27-10-2012 17:50 92.5 % 15.401 10.594 333.686 0.448 0
27-10-2012 17:40 92.1 % 15.413 13.8 19.466 0.455 0
27-10-2012 17:30 91.9 % 15.501 23.554 42.497 0.354 0
27-10-2012 17:20 91.9 % 15.501 35.102 43.639 0.655 0
27-10-2012 17:10 91.7 % 15.546 46.169 14.951 0.471 0
27-10-2012 17:00 91 % 15.554 46.538 16.104 0.704 0
27-10-2012 16:50 90.4 % 15.672 36.957 44.998 0.335 0
27-10-2012 16:40 89.7 % 15.89 60.904 86.388 0.332 0
27-10-2012 16:30 88.8 % 16.188 90.362 59.693 0.527 0
27-10-2012 16:20 91.3 % 16.697 211.347 65.94 0.826 0
27-10-2012 16:10 92.6 % 16.248 206.798 83.309 0.211 0
27-10-2012 16:00 93 % 15.667 204.668 92.804 1.154 0
27-10-2012 15:50 93.3 % 15.266 217.777 35.533 0.059 0
27-10-2012 15:40 93.6 % 15.012 99.072 82.629 0.816 0

I dati sono presentati in modo automatico a scopo informativo. In seguito a verifica i dati possono subire modifiche o essere invalidati e non riportati negli archivi definitivi.